sensor_id;sensor_type;location;lat;lon;timestamp;P1;durP1;ratioP1;P2;durP2;ratioP2
68144;SDS011;55400;51.824;-0.196;2023-07-29T00:02:15;1.50;;;0.90;;
68144;SDS011;55400;51.824;-0.196;2023-07-29T00:06:15;0.80;;;0.60;;
68144;SDS011;55400;51.824;-0.196;2023-07-29T00:10:15;0.70;;;0.70;;
68144;SDS011;55400;51.824;-0.196;2023-07-29T00:14:15;0.60;;;0.60;;
68144;SDS011;55400;51.824;-0.196;2023-07-29T00:22:48;0.70;;;0.70;;
68144;SDS011;55400;51.824;-0.196;2023-07-29T00:26:56;0.90;;;0.60;;
68144;SDS011;55400;51.824;-0.196;2023-07-29T00:30:15;1.80;;;0.80;;
68144;SDS011;55400;51.824;-0.196;2023-07-29T00:34:15;1.10;;;0.40;;
68144;SDS011;55400;51.824;-0.196;2023-07-29T00:38:15;0.50;;;0.50;;
68144;SDS011;55400;51.824;-0.196;2023-07-29T00:42:15;1.20;;;0.50;;
68144;SDS011;55400;51.824;-0.196;2023-07-29T00:46:16;0.70;;;0.70;;
68144;SDS011;55400;51.824;-0.196;2023-07-29T00:50:15;0.90;;;0.60;;
68144;SDS011;55400;51.824;-0.196;2023-07-29T00:54:15;1.90;;;0.60;;
68144;SDS011;55400;51.824;-0.196;2023-07-29T00:58:15;0.80;;;0.70;;
68144;SDS011;55400;51.824;-0.196;2023-07-29T01:02:16;1.30;;;0.80;;
68144;SDS011;55400;51.824;-0.196;2023-07-29T01:06:21;1.10;;;0.90;;
68144;SDS011;55400;51.824;-0.196;2023-07-29T01:10:21;0.60;;;0.60;;
68144;SDS011;55400;51.824;-0.196;2023-07-29T01:14:21;0.90;;;0.70;;
68144;SDS011;55400;51.824;-0.196;2023-07-29T01:18:20;1.30;;;0.70;;
68144;SDS011;55400;51.824;-0.196;2023-07-29T01:22:21;0.80;;;0.70;;
68144;SDS011;55400;51.824;-0.196;2023-07-29T01:26:15;0.80;;;0.80;;
68144;SDS011;55400;51.824;-0.196;2023-07-29T01:30:15;1.20;;;0.70;;
68144;SDS011;55400;51.824;-0.196;2023-07-29T01:34:23;0.80;;;0.70;;
68144;SDS011;55400;51.824;-0.196;2023-07-29T01:38:18;1.00;;;0.70;;
68144;SDS011;55400;51.824;-0.196;2023-07-29T01:42:15;0.80;;;0.70;;
68144;SDS011;55400;51.824;-0.196;2023-07-29T01:46:15;1.10;;;0.80;;
68144;SDS011;55400;51.824;-0.196;2023-07-29T01:50:15;1.00;;;0.90;;
68144;SDS011;55400;51.824;-0.196;2023-07-29T01:54:15;1.20;;;0.80;;
68144;SDS011;55400;51.824;-0.196;2023-07-29T01:58:15;0.70;;;0.60;;
68144;SDS011;55400;51.824;-0.196;2023-07-29T02:02:15;2.30;;;0.70;;
68144;SDS011;55400;51.824;-0.196;2023-07-29T02:06:15;0.60;;;0.60;;
68144;SDS011;55400;51.824;-0.196;2023-07-29T02:14:15;0.60;;;0.60;;
68144;SDS011;55400;51.824;-0.196;2023-07-29T02:22:16;1.00;;;0.70;;
68144;SDS011;55400;51.824;-0.196;2023-07-29T02:26:16;0.80;;;0.70;;
68144;SDS011;55400;51.824;-0.196;2023-07-29T02:30:16;0.80;;;0.80;;
68144;SDS011;55400;51.824;-0.196;2023-07-29T02:34:15;0.70;;;0.70;;
68144;SDS011;55400;51.824;-0.196;2023-07-29T02:38:16;3.60;;;0.80;;
68144;SDS011;55400;51.824;-0.196;2023-07-29T02:42:15;1.10;;;1.00;;
68144;SDS011;55400;51.824;-0.196;2023-07-29T02:46:16;0.90;;;0.90;;
68144;SDS011;55400;51.824;-0.196;2023-07-29T02:50:15;1.20;;;0.90;;
68144;SDS011;55400;51.824;-0.196;2023-07-29T02:54:15;1.50;;;1.10;;
68144;SDS011;55400;51.824;-0.196;2023-07-29T03:02:16;1.50;;;0.90;;
68144;SDS011;55400;51.824;-0.196;2023-07-29T03:06:15;2.60;;;1.00;;
68144;SDS011;55400;51.824;-0.196;2023-07-29T03:10:16;1.30;;;1.00;;
68144;SDS011;55400;51.824;-0.196;2023-07-29T03:14:15;1.40;;;1.10;;
68144;SDS011;55400;51.824;-0.196;2023-07-29T03:18:15;1.40;;;1.10;;
68144;SDS011;55400;51.824;-0.196;2023-07-29T03:22:15;1.40;;;1.30;;
68144;SDS011;55400;51.824;-0.196;2023-07-29T03:30:18;1.30;;;1.10;;
68144;SDS011;55400;51.824;-0.196;2023-07-29T03:34:15;1.90;;;1.20;;
68144;SDS011;55400;51.824;-0.196;2023-07-29T03:38:16;1.50;;;1.20;;
68144;SDS011;55400;51.824;-0.196;2023-07-29T03:42:15;2.10;;;1.30;;
68144;SDS011;55400;51.824;-0.196;2023-07-29T03:46:16;2.50;;;1.40;;
68144;SDS011;55400;51.824;-0.196;2023-07-29T03:50:16;2.30;;;1.30;;
68144;SDS011;55400;51.824;-0.196;2023-07-29T03:54:16;3.50;;;1.40;;
68144;SDS011;55400;51.824;-0.196;2023-07-29T03:58:16;2.50;;;1.60;;
68144;SDS011;55400;51.824;-0.196;2023-07-29T04:02:16;1.40;;;1.20;;
68144;SDS011;55400;51.824;-0.196;2023-07-29T04:06:16;4.00;;;1.50;;
68144;SDS011;55400;51.824;-0.196;2023-07-29T04:10:16;1.60;;;1.20;;
68144;SDS011;55400;51.824;-0.196;2023-07-29T04:14:16;2.40;;;1.30;;
68144;SDS011;55400;51.824;-0.196;2023-07-29T04:18:16;1.70;;;1.20;;
68144;SDS011;55400;51.824;-0.196;2023-07-29T04:22:16;1.50;;;1.20;;
68144;SDS011;55400;51.824;-0.196;2023-07-29T04:26:16;1.90;;;1.30;;
68144;SDS011;55400;51.824;-0.196;2023-07-29T04:30:16;1.80;;;1.20;;
68144;SDS011;55400;51.824;-0.196;2023-07-29T04:34:17;2.50;;;1.50;;
68144;SDS011;55400;51.824;-0.196;2023-07-29T04:38:16;2.60;;;1.30;;
68144;SDS011;55400;51.824;-0.196;2023-07-29T04:42:16;2.50;;;1.30;;
68144;SDS011;55400;51.824;-0.196;2023-07-29T04:46:16;4.00;;;1.60;;
68144;SDS011;55400;51.824;-0.196;2023-07-29T04:50:16;4.30;;;1.40;;
68144;SDS011;55400;51.824;-0.196;2023-07-29T04:54:16;2.90;;;1.60;;
68144;SDS011;55400;51.824;-0.196;2023-07-29T04:58:16;1.90;;;1.50;;
68144;SDS011;55400;51.824;-0.196;2023-07-29T05:02:16;2.20;;;1.30;;
68144;SDS011;55400;51.824;-0.196;2023-07-29T05:06:16;1.50;;;1.30;;
68144;SDS011;55400;51.824;-0.196;2023-07-29T05:10:16;3.30;;;1.70;;
68144;SDS011;55400;51.824;-0.196;2023-07-29T05:14:17;3.80;;;1.40;;
68144;SDS011;55400;51.824;-0.196;2023-07-29T05:18:16;2.20;;;1.50;;
68144;SDS011;55400;51.824;-0.196;2023-07-29T05:26:16;1.40;;;1.30;;
68144;SDS011;55400;51.824;-0.196;2023-07-29T05:34:16;1.40;;;1.30;;
68144;SDS011;55400;51.824;-0.196;2023-07-29T05:38:40;2.60;;;1.40;;
68144;SDS011;55400;51.824;-0.196;2023-07-29T05:42:16;4.50;;;1.40;;
68144;SDS011;55400;51.824;-0.196;2023-07-29T05:46:16;1.60;;;1.30;;
68144;SDS011;55400;51.824;-0.196;2023-07-29T05:50:36;2.30;;;1.40;;
68144;SDS011;55400;51.824;-0.196;2023-07-29T05:54:17;2.30;;;1.50;;
68144;SDS011;55400;51.824;-0.196;2023-07-29T05:58:46;3.20;;;1.30;;
68144;SDS011;55400;51.824;-0.196;2023-07-29T06:02:16;1.50;;;1.40;;
68144;SDS011;55400;51.824;-0.196;2023-07-29T06:10:16;3.30;;;1.50;;
68144;SDS011;55400;51.824;-0.196;2023-07-29T06:14:16;2.70;;;1.50;;
68144;SDS011;55400;51.824;-0.196;2023-07-29T06:18:16;2.80;;;1.60;;
68144;SDS011;55400;51.824;-0.196;2023-07-29T06:22:16;2.30;;;1.40;;
68144;SDS011;55400;51.824;-0.196;2023-07-29T06:26:16;2.90;;;1.70;;
68144;SDS011;55400;51.824;-0.196;2023-07-29T06:30:16;3.10;;;1.40;;
68144;SDS011;55400;51.824;-0.196;2023-07-29T06:34:16;2.00;;;1.40;;
68144;SDS011;55400;51.824;-0.196;2023-07-29T06:38:16;2.30;;;1.60;;
68144;SDS011;55400;51.824;-0.196;2023-07-29T06:42:16;4.40;;;1.40;;
68144;SDS011;55400;51.824;-0.196;2023-07-29T06:46:16;4.50;;;1.70;;
68144;SDS011;55400;51.824;-0.196;2023-07-29T06:54:16;2.80;;;1.40;;
68144;SDS011;55400;51.824;-0.196;2023-07-29T06:58:16;2.80;;;1.50;;
68144;SDS011;55400;51.824;-0.196;2023-07-29T07:02:16;2.00;;;1.40;;
68144;SDS011;55400;51.824;-0.196;2023-07-29T07:06:16;2.70;;;1.40;;
68144;SDS011;55400;51.824;-0.196;2023-07-29T07:10:17;3.50;;;1.80;;
68144;SDS011;55400;51.824;-0.196;2023-07-29T07:14:16;3.00;;;1.30;;
68144;SDS011;55400;51.824;-0.196;2023-07-29T07:18:16;2.50;;;1.40;;
68144;SDS011;55400;51.824;-0.196;2023-07-29T07:22:16;2.50;;;1.40;;
68144;SDS011;55400;51.824;-0.196;2023-07-29T07:34:16;2.60;;;1.20;;
68144;SDS011;55400;51.824;-0.196;2023-07-29T07:38:16;2.20;;;1.20;;
68144;SDS011;55400;51.824;-0.196;2023-07-29T07:42:16;2.00;;;1.10;;
68144;SDS011;55400;51.824;-0.196;2023-07-29T07:46:16;3.60;;;1.40;;
68144;SDS011;55400;51.824;-0.196;2023-07-29T07:50:16;3.30;;;1.20;;
68144;SDS011;55400;51.824;-0.196;2023-07-29T07:54:16;1.80;;;1.20;;
68144;SDS011;55400;51.824;-0.196;2023-07-29T07:58:16;1.80;;;1.20;;
68144;SDS011;55400;51.824;-0.196;2023-07-29T08:02:16;1.40;;;1.20;;
68144;SDS011;55400;51.824;-0.196;2023-07-29T08:06:16;2.30;;;1.00;;
68144;SDS011;55400;51.824;-0.196;2023-07-29T08:10:16;2.40;;;1.30;;
68144;SDS011;55400;51.824;-0.196;2023-07-29T08:14:16;2.90;;;1.40;;
68144;SDS011;55400;51.824;-0.196;2023-07-29T08:18:17;3.50;;;1.20;;
68144;SDS011;55400;51.824;-0.196;2023-07-29T08:22:16;1.70;;;1.10;;
68144;SDS011;55400;51.824;-0.196;2023-07-29T08:26:16;2.40;;;1.30;;
68144;SDS011;55400;51.824;-0.196;2023-07-29T08:30:17;4.30;;;1.20;;
68144;SDS011;55400;51.824;-0.196;2023-07-29T08:34:16;2.40;;;1.20;;
68144;SDS011;55400;51.824;-0.196;2023-07-29T08:38:17;3.40;;;1.30;;
68144;SDS011;55400;51.824;-0.196;2023-07-29T08:42:28;3.30;;;1.30;;
68144;SDS011;55400;51.824;-0.196;2023-07-29T08:46:29;5.30;;;1.40;;
68144;SDS011;55400;51.824;-0.196;2023-07-29T08:49:47;5.30;;;1.40;;
68144;SDS011;55400;51.824;-0.196;2023-07-29T08:51:05;2.80;;;1.20;;
68144;SDS011;55400;51.824;-0.196;2023-07-29T08:54:17;2.80;;;1.20;;
68144;SDS011;55400;51.824;-0.196;2023-07-29T08:58:16;2.00;;;1.10;;
68144;SDS011;55400;51.824;-0.196;2023-07-29T09:02:17;2.30;;;1.20;;
68144;SDS011;55400;51.824;-0.196;2023-07-29T09:06:18;2.10;;;1.20;;
68144;SDS011;55400;51.824;-0.196;2023-07-29T09:14:17;1.60;;;1.20;;
68144;SDS011;55400;51.824;-0.196;2023-07-29T09:18:18;2.70;;;1.20;;
68144;SDS011;55400;51.824;-0.196;2023-07-29T09:22:17;2.80;;;1.20;;
68144;SDS011;55400;51.824;-0.196;2023-07-29T09:26:22;2.70;;;1.30;;
68144;SDS011;55400;51.824;-0.196;2023-07-29T09:30:17;3.50;;;1.40;;
68144;SDS011;55400;51.824;-0.196;2023-07-29T09:34:17;3.40;;;1.30;;
68144;SDS011;55400;51.824;-0.196;2023-07-29T09:38:17;2.00;;;0.90;;
68144;SDS011;55400;51.824;-0.196;2023-07-29T09:42:17;3.10;;;1.70;;
68144;SDS011;55400;51.824;-0.196;2023-07-29T09:46:17;2.20;;;1.10;;
68144;SDS011;55400;51.824;-0.196;2023-07-29T09:50:17;1.60;;;1.30;;
68144;SDS011;55400;51.824;-0.196;2023-07-29T09:54:17;1.60;;;1.00;;
68144;SDS011;55400;51.824;-0.196;2023-07-29T09:58:22;1.80;;;1.30;;
68144;SDS011;55400;51.824;-0.196;2023-07-29T10:02:17;2.20;;;1.40;;
68144;SDS011;55400;51.824;-0.196;2023-07-29T10:06:17;2.00;;;1.30;;
68144;SDS011;55400;51.824;-0.196;2023-07-29T10:10:17;2.30;;;1.20;;
68144;SDS011;55400;51.824;-0.196;2023-07-29T10:14:17;3.00;;;1.20;;
68144;SDS011;55400;51.824;-0.196;2023-07-29T10:18:18;3.00;;;1.10;;
68144;SDS011;55400;51.824;-0.196;2023-07-29T10:22:20;2.20;;;1.20;;
68144;SDS011;55400;51.824;-0.196;2023-07-29T10:26:17;2.00;;;1.00;;
68144;SDS011;55400;51.824;-0.196;2023-07-29T10:30:17;1.50;;;1.00;;
68144;SDS011;55400;51.824;-0.196;2023-07-29T10:34:18;2.90;;;1.10;;
68144;SDS011;55400;51.824;-0.196;2023-07-29T10:38:18;1.40;;;1.10;;
68144;SDS011;55400;51.824;-0.196;2023-07-29T10:42:17;2.70;;;1.20;;
68144;SDS011;55400;51.824;-0.196;2023-07-29T10:46:18;1.90;;;1.10;;
68144;SDS011;55400;51.824;-0.196;2023-07-29T10:50:19;4.30;;;1.20;;
68144;SDS011;55400;51.824;-0.196;2023-07-29T10:54:17;1.90;;;1.20;;
68144;SDS011;55400;51.824;-0.196;2023-07-29T10:58:17;1.90;;;1.00;;
68144;SDS011;55400;51.824;-0.196;2023-07-29T11:02:18;1.40;;;1.10;;
68144;SDS011;55400;51.824;-0.196;2023-07-29T11:06:17;1.90;;;1.40;;
68144;SDS011;55400;51.824;-0.196;2023-07-29T11:10:17;1.70;;;1.00;;
68144;SDS011;55400;51.824;-0.196;2023-07-29T11:14:19;1.00;;;0.90;;
68144;SDS011;55400;51.824;-0.196;2023-07-29T11:18:17;3.40;;;1.00;;
68144;SDS011;55400;51.824;-0.196;2023-07-29T11:23:29;1.50;;;1.10;;
68144;SDS011;55400;51.824;-0.196;2023-07-29T11:26:17;1.50;;;1.10;;
68144;SDS011;55400;51.824;-0.196;2023-07-29T11:30:17;2.40;;;1.10;;
68144;SDS011;55400;51.824;-0.196;2023-07-29T11:34:17;2.60;;;0.80;;
68144;SDS011;55400;51.824;-0.196;2023-07-29T11:38:56;1.80;;;1.10;;
68144;SDS011;55400;51.824;-0.196;2023-07-29T11:42:17;1.80;;;1.10;;
68144;SDS011;55400;51.824;-0.196;2023-07-29T11:46:21;1.40;;;1.00;;
68144;SDS011;55400;51.824;-0.196;2023-07-29T11:50:17;2.00;;;1.00;;
68144;SDS011;55400;51.824;-0.196;2023-07-29T11:54:17;2.00;;;1.10;;
68144;SDS011;55400;51.824;-0.196;2023-07-29T11:58:17;2.70;;;1.10;;
68144;SDS011;55400;51.824;-0.196;2023-07-29T12:02:19;2.10;;;0.90;;
68144;SDS011;55400;51.824;-0.196;2023-07-29T12:06:17;2.10;;;0.70;;
68144;SDS011;55400;51.824;-0.196;2023-07-29T12:10:17;3.20;;;1.10;;
68144;SDS011;55400;51.824;-0.196;2023-07-29T12:14:17;1.70;;;1.10;;
68144;SDS011;55400;51.824;-0.196;2023-07-29T12:18:17;1.90;;;1.10;;
68144;SDS011;55400;51.824;-0.196;2023-07-29T12:22:18;2.20;;;0.90;;
68144;SDS011;55400;51.824;-0.196;2023-07-29T12:26:17;2.00;;;1.00;;
68144;SDS011;55400;51.824;-0.196;2023-07-29T12:30:20;1.10;;;0.80;;
68144;SDS011;55400;51.824;-0.196;2023-07-29T12:34:18;1.80;;;1.20;;
68144;SDS011;55400;51.824;-0.196;2023-07-29T12:38:20;2.00;;;0.90;;
68144;SDS011;55400;51.824;-0.196;2023-07-29T12:42:17;3.70;;;1.00;;
68144;SDS011;55400;51.824;-0.196;2023-07-29T12:46:17;1.70;;;0.80;;
68144;SDS011;55400;51.824;-0.196;2023-07-29T12:50:17;4.30;;;0.90;;
68144;SDS011;55400;51.824;-0.196;2023-07-29T12:54:17;2.80;;;0.70;;
68144;SDS011;55400;51.824;-0.196;2023-07-29T12:58:17;1.30;;;0.90;;
68144;SDS011;55400;51.824;-0.196;2023-07-29T13:03:26;1.40;;;0.90;;
68144;SDS011;55400;51.824;-0.196;2023-07-29T13:06:23;1.40;;;0.90;;
68144;SDS011;55400;51.824;-0.196;2023-07-29T13:10:17;0.90;;;0.60;;
68144;SDS011;55400;51.824;-0.196;2023-07-29T13:14:17;1.30;;;0.60;;
68144;SDS011;55400;51.824;-0.196;2023-07-29T13:18:17;2.70;;;0.60;;
68144;SDS011;55400;51.824;-0.196;2023-07-29T13:22:19;1.40;;;0.70;;
68144;SDS011;55400;51.824;-0.196;2023-07-29T13:26:17;1.30;;;0.80;;
68144;SDS011;55400;51.824;-0.196;2023-07-29T13:30:17;2.30;;;0.90;;
68144;SDS011;55400;51.824;-0.196;2023-07-29T13:34:17;1.50;;;0.80;;
68144;SDS011;55400;51.824;-0.196;2023-07-29T13:38:19;3.40;;;0.90;;
68144;SDS011;55400;51.824;-0.196;2023-07-29T13:42:40;2.10;;;0.90;;
68144;SDS011;55400;51.824;-0.196;2023-07-29T13:47:11;2.10;;;0.80;;
68144;SDS011;55400;51.824;-0.196;2023-07-29T13:50:18;1.30;;;0.70;;
68144;SDS011;55400;51.824;-0.196;2023-07-29T13:54:17;1.10;;;0.70;;
68144;SDS011;55400;51.824;-0.196;2023-07-29T13:58:17;2.40;;;0.60;;
68144;SDS011;55400;51.824;-0.196;2023-07-29T14:02:18;1.40;;;0.80;;
68144;SDS011;55400;51.824;-0.196;2023-07-29T14:06:17;1.70;;;0.70;;
68144;SDS011;55400;51.824;-0.196;2023-07-29T14:10:17;2.40;;;0.80;;
68144;SDS011;55400;51.824;-0.196;2023-07-29T14:14:17;4.80;;;0.90;;
68144;SDS011;55400;51.824;-0.196;2023-07-29T14:18:17;1.00;;;0.80;;
68144;SDS011;55400;51.824;-0.196;2023-07-29T14:22:18;1.50;;;1.00;;
68144;SDS011;55400;51.824;-0.196;2023-07-29T14:26:17;2.50;;;0.90;;
68144;SDS011;55400;51.824;-0.196;2023-07-29T14:30:18;1.40;;;0.90;;
68144;SDS011;55400;51.824;-0.196;2023-07-29T14:34:17;4.40;;;1.10;;
68144;SDS011;55400;51.824;-0.196;2023-07-29T14:38:17;2.20;;;1.00;;
68144;SDS011;55400;51.824;-0.196;2023-07-29T14:42:17;4.70;;;0.90;;
68144;SDS011;55400;51.824;-0.196;2023-07-29T14:45:47;2.90;;;0.90;;
68144;SDS011;55400;51.824;-0.196;2023-07-29T14:46:37;2.90;;;0.90;;
68144;SDS011;55400;51.824;-0.196;2023-07-29T14:50:17;2.40;;;0.90;;
68144;SDS011;55400;51.824;-0.196;2023-07-29T14:54:18;4.30;;;0.90;;
68144;SDS011;55400;51.824;-0.196;2023-07-29T14:58:18;2.50;;;0.80;;
68144;SDS011;55400;51.824;-0.196;2023-07-29T15:02:18;2.90;;;1.00;;
68144;SDS011;55400;51.824;-0.196;2023-07-29T15:06:17;1.50;;;0.90;;
68144;SDS011;55400;51.824;-0.196;2023-07-29T15:10:18;1.30;;;0.80;;
68144;SDS011;55400;51.824;-0.196;2023-07-29T15:14:17;4.80;;;1.10;;
68144;SDS011;55400;51.824;-0.196;2023-07-29T15:19:27;2.00;;;0.80;;
68144;SDS011;55400;51.824;-0.196;2023-07-29T15:22:18;1.50;;;0.60;;
68144;SDS011;55400;51.824;-0.196;2023-07-29T15:26:17;2.90;;;0.90;;
68144;SDS011;55400;51.824;-0.196;2023-07-29T15:30:18;2.70;;;1.00;;
68144;SDS011;55400;51.824;-0.196;2023-07-29T15:38:18;1.50;;;0.70;;
68144;SDS011;55400;51.824;-0.196;2023-07-29T15:44:45;1.40;;;0.80;;
68144;SDS011;55400;51.824;-0.196;2023-07-29T15:48:49;1.70;;;0.70;;
68144;SDS011;55400;51.824;-0.196;2023-07-29T15:50:42;1.70;;;0.70;;
68144;SDS011;55400;51.824;-0.196;2023-07-29T15:54:18;1.60;;;0.70;;
68144;SDS011;55400;51.824;-0.196;2023-07-29T15:58:18;0.90;;;0.80;;
68144;SDS011;55400;51.824;-0.196;2023-07-29T16:06:18;3.20;;;0.90;;
68144;SDS011;55400;51.824;-0.196;2023-07-29T16:10:18;1.50;;;0.90;;
68144;SDS011;55400;51.824;-0.196;2023-07-29T16:14:18;2.70;;;1.10;;
68144;SDS011;55400;51.824;-0.196;2023-07-29T16:18:18;2.60;;;0.80;;
68144;SDS011;55400;51.824;-0.196;2023-07-29T16:22:18;2.30;;;0.80;;
68144;SDS011;55400;51.824;-0.196;2023-07-29T16:26:18;2.00;;;0.80;;
68144;SDS011;55400;51.824;-0.196;2023-07-29T16:30:18;3.00;;;0.80;;
68144;SDS011;55400;51.824;-0.196;2023-07-29T16:34:18;7.40;;;1.00;;
68144;SDS011;55400;51.824;-0.196;2023-07-29T16:38:18;1.40;;;0.80;;
68144;SDS011;55400;51.824;-0.196;2023-07-29T16:42:18;2.60;;;0.90;;
68144;SDS011;55400;51.824;-0.196;2023-07-29T16:46:18;2.30;;;1.00;;
68144;SDS011;55400;51.824;-0.196;2023-07-29T16:50:18;1.80;;;0.80;;
68144;SDS011;55400;51.824;-0.196;2023-07-29T16:54:18;0.90;;;0.70;;
68144;SDS011;55400;51.824;-0.196;2023-07-29T16:58:18;1.90;;;0.70;;
68144;SDS011;55400;51.824;-0.196;2023-07-29T17:02:18;1.10;;;0.60;;
68144;SDS011;55400;51.824;-0.196;2023-07-29T17:06:18;3.70;;;0.60;;
68144;SDS011;55400;51.824;-0.196;2023-07-29T17:10:18;1.60;;;0.60;;
68144;SDS011;55400;51.824;-0.196;2023-07-29T17:14:18;1.90;;;1.00;;
68144;SDS011;55400;51.824;-0.196;2023-07-29T17:18:18;2.40;;;1.00;;
68144;SDS011;55400;51.824;-0.196;2023-07-29T17:26:18;1.20;;;0.70;;
68144;SDS011;55400;51.824;-0.196;2023-07-29T17:30:18;2.10;;;0.90;;
68144;SDS011;55400;51.824;-0.196;2023-07-29T17:42:18;2.10;;;0.70;;
68144;SDS011;55400;51.824;-0.196;2023-07-29T17:46:18;1.60;;;0.70;;
68144;SDS011;55400;51.824;-0.196;2023-07-29T17:50:18;0.90;;;0.60;;
68144;SDS011;55400;51.824;-0.196;2023-07-29T17:54:18;1.60;;;0.90;;
68144;SDS011;55400;51.824;-0.196;2023-07-29T17:58:18;1.90;;;0.60;;
68144;SDS011;55400;51.824;-0.196;2023-07-29T18:02:18;1.90;;;1.30;;
68144;SDS011;55400;51.824;-0.196;2023-07-29T18:06:18;2.10;;;1.10;;
68144;SDS011;55400;51.824;-0.196;2023-07-29T18:10:18;1.90;;;1.20;;
68144;SDS011;55400;51.824;-0.196;2023-07-29T18:14:20;2.10;;;1.40;;
68144;SDS011;55400;51.824;-0.196;2023-07-29T18:18:18;3.20;;;1.60;;
68144;SDS011;55400;51.824;-0.196;2023-07-29T18:22:18;1.70;;;0.80;;
68144;SDS011;55400;51.824;-0.196;2023-07-29T18:26:18;3.50;;;0.90;;
68144;SDS011;55400;51.824;-0.196;2023-07-29T18:30:18;1.90;;;0.90;;
68144;SDS011;55400;51.824;-0.196;2023-07-29T18:34:18;2.90;;;1.00;;
68144;SDS011;55400;51.824;-0.196;2023-07-29T18:38:18;3.30;;;1.20;;
68144;SDS011;55400;51.824;-0.196;2023-07-29T18:42:18;3.20;;;1.20;;
68144;SDS011;55400;51.824;-0.196;2023-07-29T18:46:18;1.30;;;0.80;;
68144;SDS011;55400;51.824;-0.196;2023-07-29T18:50:18;1.50;;;0.80;;
68144;SDS011;55400;51.824;-0.196;2023-07-29T18:54:18;1.80;;;0.80;;
68144;SDS011;55400;51.824;-0.196;2023-07-29T18:58:18;2.80;;;1.00;;
68144;SDS011;55400;51.824;-0.196;2023-07-29T19:02:18;1.70;;;1.00;;
68144;SDS011;55400;51.824;-0.196;2023-07-29T19:07:07;4.10;;;1.00;;
68144;SDS011;55400;51.824;-0.196;2023-07-29T19:11:40;4.70;;;0.90;;
68144;SDS011;55400;51.824;-0.196;2023-07-29T19:14:18;2.20;;;0.90;;
68144;SDS011;55400;51.824;-0.196;2023-07-29T19:18:18;3.50;;;1.10;;
68144;SDS011;55400;51.824;-0.196;2023-07-29T19:22:18;2.30;;;1.40;;
68144;SDS011;55400;51.824;-0.196;2023-07-29T19:26:18;4.40;;;1.30;;
68144;SDS011;55400;51.824;-0.196;2023-07-29T19:30:18;4.00;;;0.90;;
68144;SDS011;55400;51.824;-0.196;2023-07-29T19:34:18;2.20;;;1.00;;
68144;SDS011;55400;51.824;-0.196;2023-07-29T19:38:18;3.10;;;1.00;;
68144;SDS011;55400;51.824;-0.196;2023-07-29T19:42:18;4.00;;;1.00;;
68144;SDS011;55400;51.824;-0.196;2023-07-29T19:46:19;2.20;;;1.30;;
68144;SDS011;55400;51.824;-0.196;2023-07-29T19:50:18;3.60;;;1.20;;
68144;SDS011;55400;51.824;-0.196;2023-07-29T19:54:18;4.30;;;1.80;;
68144;SDS011;55400;51.824;-0.196;2023-07-29T19:58:19;4.80;;;1.80;;
68144;SDS011;55400;51.824;-0.196;2023-07-29T20:02:18;3.40;;;1.20;;
68144;SDS011;55400;51.824;-0.196;2023-07-29T20:06:19;3.10;;;1.60;;
68144;SDS011;55400;51.824;-0.196;2023-07-29T20:10:18;4.70;;;2.40;;
68144;SDS011;55400;51.824;-0.196;2023-07-29T20:14:19;5.60;;;2.60;;
68144;SDS011;55400;51.824;-0.196;2023-07-29T20:18:19;1.80;;;1.10;;
68144;SDS011;55400;51.824;-0.196;2023-07-29T20:22:18;3.20;;;1.40;;
68144;SDS011;55400;51.824;-0.196;2023-07-29T20:26:18;2.90;;;1.50;;
68144;SDS011;55400;51.824;-0.196;2023-07-29T20:30:19;5.80;;;1.90;;
68144;SDS011;55400;51.824;-0.196;2023-07-29T20:34:18;5.10;;;1.80;;
68144;SDS011;55400;51.824;-0.196;2023-07-29T20:38:18;5.70;;;2.20;;
68144;SDS011;55400;51.824;-0.196;2023-07-29T20:42:19;3.60;;;1.80;;
68144;SDS011;55400;51.824;-0.196;2023-07-29T20:46:19;3.20;;;1.40;;
68144;SDS011;55400;51.824;-0.196;2023-07-29T20:50:19;2.20;;;1.50;;
68144;SDS011;55400;51.824;-0.196;2023-07-29T20:54:19;4.60;;;1.70;;
68144;SDS011;55400;51.824;-0.196;2023-07-29T20:58:19;3.70;;;1.60;;
68144;SDS011;55400;51.824;-0.196;2023-07-29T21:02:19;5.50;;;1.70;;
68144;SDS011;55400;51.824;-0.196;2023-07-29T21:06:18;5.60;;;1.60;;
68144;SDS011;55400;51.824;-0.196;2023-07-29T21:10:19;4.10;;;1.50;;
68144;SDS011;55400;51.824;-0.196;2023-07-29T21:14:18;3.90;;;1.20;;
68144;SDS011;55400;51.824;-0.196;2023-07-29T21:22:19;3.00;;;1.20;;
68144;SDS011;55400;51.824;-0.196;2023-07-29T21:26:19;4.70;;;1.20;;
68144;SDS011;55400;51.824;-0.196;2023-07-29T21:30:19;2.80;;;1.10;;
68144;SDS011;55400;51.824;-0.196;2023-07-29T21:34:19;3.80;;;1.30;;
68144;SDS011;55400;51.824;-0.196;2023-07-29T21:38:19;5.00;;;1.20;;
68144;SDS011;55400;51.824;-0.196;2023-07-29T21:42:19;2.00;;;1.10;;
68144;SDS011;55400;51.824;-0.196;2023-07-29T21:46:19;5.50;;;1.60;;
68144;SDS011;55400;51.824;-0.196;2023-07-29T21:50:19;3.20;;;1.10;;
68144;SDS011;55400;51.824;-0.196;2023-07-29T21:54:19;3.80;;;1.30;;
68144;SDS011;55400;51.824;-0.196;2023-07-29T21:58:19;3.00;;;0.90;;
68144;SDS011;55400;51.824;-0.196;2023-07-29T22:02:19;2.50;;;1.10;;
68144;SDS011;55400;51.824;-0.196;2023-07-29T22:10:19;4.80;;;1.50;;
68144;SDS011;55400;51.824;-0.196;2023-07-29T22:14:19;5.50;;;1.40;;
68144;SDS011;55400;51.824;-0.196;2023-07-29T22:22:19;5.10;;;1.00;;
68144;SDS011;55400;51.824;-0.196;2023-07-29T22:26:19;2.80;;;1.30;;
68144;SDS011;55400;51.824;-0.196;2023-07-29T22:30:19;2.20;;;0.90;;
68144;SDS011;55400;51.824;-0.196;2023-07-29T22:34:19;5.50;;;1.30;;
68144;SDS011;55400;51.824;-0.196;2023-07-29T22:38:19;3.20;;;1.10;;
68144;SDS011;55400;51.824;-0.196;2023-07-29T22:42:19;4.00;;;1.20;;
68144;SDS011;55400;51.824;-0.196;2023-07-29T22:50:19;3.30;;;1.00;;
68144;SDS011;55400;51.824;-0.196;2023-07-29T22:54:43;2.00;;;1.10;;
68144;SDS011;55400;51.824;-0.196;2023-07-29T22:58:19;2.00;;;1.00;;
68144;SDS011;55400;51.824;-0.196;2023-07-29T23:02:19;2.70;;;1.20;;
68144;SDS011;55400;51.824;-0.196;2023-07-29T23:06:45;1.60;;;0.80;;
68144;SDS011;55400;51.824;-0.196;2023-07-29T23:10:19;3.20;;;1.00;;
68144;SDS011;55400;51.824;-0.196;2023-07-29T23:14:19;4.50;;;1.20;;
68144;SDS011;55400;51.824;-0.196;2023-07-29T23:18:19;3.00;;;1.20;;
68144;SDS011;55400;51.824;-0.196;2023-07-29T23:22:19;2.80;;;1.20;;
68144;SDS011;55400;51.824;-0.196;2023-07-29T23:26:19;3.70;;;1.50;;
68144;SDS011;55400;51.824;-0.196;2023-07-29T23:34:19;2.70;;;1.00;;
68144;SDS011;55400;51.824;-0.196;2023-07-29T23:38:19;2.70;;;1.10;;
68144;SDS011;55400;51.824;-0.196;2023-07-29T23:42:19;3.70;;;1.60;;
68144;SDS011;55400;51.824;-0.196;2023-07-29T23:46:19;4.20;;;1.30;;
68144;SDS011;55400;51.824;-0.196;2023-07-29T23:50:19;3.10;;;1.20;;
68144;SDS011;55400;51.824;-0.196;2023-07-29T23:54:19;4.10;;;1.00;;
68144;SDS011;55400;51.824;-0.196;2023-07-29T23:58:19;4.30;;;1.40;;
